Georgia State University, Georgia
Current Conditions -  °F | °C
As of 11:22 AM on Monday 26 Jan 2015 (Local Time) from KATL Reporting Station
Overcast Overcast  
Wind Chill: 36°   Ceiling: 2300
Heat Index: 45°   Visibility: 10mi
Dew Point: 36°   Wind: 23mph
Humidity: 71%   Direction: 300°WNW
Pressure: 29.86"   Gusts: 30mph
Location:  33.7534°N, 84.3891°W
Report Text: KATL 261622Z 30020G26KT 10SM BKN023 BKN030 OVC040 07/02 A2986 RMK AO2 PK WND 30026/1622
Loading
Personal Weather Stations






























Interactive Weather Map New forecast layout! Learn more

10-Day Weather Forecast

Advertisements
Track Severe Weather on mobile